This is the latest recevied weather packets stored in our database for station/object KK6LZB. If no packets are shown the sender has not sent any weather packets the latest 10 day(s).
| Time | Temp. | Humidity | Pressure | Rain* | Wind** | Luminosity | Snow |
|---|---|---|---|---|---|---|---|
| 1778099364 | 20.56° C | 68% | 1019.3 hPa | 0 mm | - | 714 W/m² | - |
| 1778099061 | 21.67° C | 66% | 1019.5 hPa | 0 mm | - | 718 W/m² | - |
| 1778098757 | 21.11° C | 68% | 1019.3 hPa | 0 mm | - | 722 W/m² | - |
| 1778098455 | 21.11° C | 68% | 1019.5 hPa | 0 mm | - | 725 W/m² | - |
| 1778098151 | 20.56° C | 70% | 1019.5 hPa | 0 mm | - | 727 W/m² | - |
| 1778097847 | 20.56° C | 72% | 1019.5 hPa | 0 mm | - | 729 W/m² | - |
| 1778097544 | 21.11° C | 68% | 1019.7 hPa | 0 mm | - | 729 W/m² | - |
| 1778097241 | 20° C | 72% | 1019.5 hPa | 0 mm | - | 731 W/m² | - |
| 1778096938 | 20° C | 70% | 1019.6 hPa | 0 mm | - | 731 W/m² | - |
| 1778096635 | 20.56° C | 71% | 1019.8 hPa | 0 mm | - | 731 W/m² | - |
| 1778096332 | 21.11° C | 69% | 1019.7 hPa | 0 mm | - | 729 W/m² | - |
| 1778096029 | 20.56° C | 71% | 1019.8 hPa | 0 mm | - | 728 W/m² | - |
| 1778095725 | 20° C | 71% | 1019.9 hPa | 0 mm | - | 728 W/m² | - |
| 1778095422 | 20° C | 71% | 1019.9 hPa | 0 mm | - | 725 W/m² | - |
| 1778095119 | 20° C | 71% | 1020 hPa | 0 mm | - | 723 W/m² | - |
| 1778094815 | 20° C | 70% | 1020.2 hPa | 0 mm | - | 721 W/m² | - |
| 1778094512 | 20° C | 73% | 1020.2 hPa | 0 mm | - | 718 W/m² | - |
| 1778094208 | 19.44° C | 73% | 1020.3 hPa | 0 mm | - | 714 W/m² | - |
| 1778093906 | 19.44° C | 72% | 1020.2 hPa | 0 mm | - | 712 W/m² | - |
| 1778093603 | 20° C | 73% | 1020.4 hPa | 0 mm | - | 707 W/m² | - |
| 1778093299 | 20° C | 72% | 1020.3 hPa | 0 mm | - | 701 W/m² | - |
| 1778092997 | 20° C | 74% | 1020.3 hPa | 0 mm | - | 699 W/m² | - |
| 1778092694 | 19.44° C | 75% | 1020.2 hPa | 0 mm | - | 694 W/m² | - |
| 1778092389 | 20° C | 73% | 1020.2 hPa | 0 mm | - | 687 W/m² | - |
| 1778092086 | 18.89° C | 74% | 1020.3 hPa | 0 mm | - | 680 W/m² | - |
* Rain latest hour (hover to see other rain measurements)
** Current wind speed in m/s (hover to see current wind gust speed)